sensor_id;sensor_type;location;lat;lon;timestamp;temperature;humidity
23591;DHT22;11973;52.098;7.582;2023-05-28T05:16:05;12.20;70.10
23591;DHT22;11973;52.098;7.582;2023-05-28T05:18:32;12.30;70.10
23591;DHT22;11973;52.098;7.582;2023-05-28T05:20:57;12.40;70.40
23591;DHT22;11973;52.098;7.582;2023-05-28T05:23:23;12.40;70.50
23591;DHT22;11973;52.098;7.582;2023-05-28T05:25:49;12.50;70.70
23591;DHT22;11973;52.098;7.582;2023-05-28T05:28:15;12.60;70.80
23591;DHT22;11973;52.098;7.582;2023-05-28T05:30:42;12.70;71.10
23591;DHT22;11973;52.098;7.582;2023-05-28T05:33:08;12.70;71.10
23591;DHT22;11973;52.098;7.582;2023-05-28T05:35:48;12.80;71.20
23591;DHT22;11973;52.098;7.582;2023-05-28T05:38:34;12.90;71.30
23591;DHT22;11973;52.098;7.582;2023-05-28T05:41:13;13.00;71.50
23591;DHT22;11973;52.098;7.582;2023-05-28T05:43:47;13.10;71.50
23591;DHT22;11973;52.098;7.582;2023-05-28T05:46:14;13.20;72.50
23591;DHT22;11973;52.098;7.582;2023-05-28T05:48:40;13.30;71.90
23591;DHT22;11973;52.098;7.582;2023-05-28T05:51:06;13.30;71.90
23591;DHT22;11973;52.098;7.582;2023-05-28T05:53:32;13.40;72.00
23591;DHT22;11973;52.098;7.582;2023-05-28T05:55:58;13.50;72.10
23591;DHT22;11973;52.098;7.582;2023-05-28T05:58:24;13.60;72.10
23591;DHT22;11973;52.098;7.582;2023-05-28T06:00:50;13.60;72.10
23591;DHT22;11973;52.098;7.582;2023-05-28T06:03:17;13.70;72.30
23591;DHT22;11973;52.098;7.582;2023-05-28T06:06:01;13.80;72.40
23591;DHT22;11973;52.098;7.582;2023-05-28T06:08:39;13.90;72.40
23591;DHT22;11973;52.098;7.582;2023-05-28T06:11:12;14.00;72.60
23591;DHT22;11973;52.098;7.582;2023-05-28T06:13:38;14.10;72.60
23591;DHT22;11973;52.098;7.582;2023-05-28T06:16:04;14.20;72.60
23591;DHT22;11973;52.098;7.582;2023-05-28T06:18:30;14.30;72.80
23591;DHT22;11973;52.098;7.582;2023-05-28T06:20:57;14.40;72.80
23591;DHT22;11973;52.098;7.582;2023-05-28T06:23:23;14.50;72.90
23591;DHT22;11973;52.098;7.582;2023-05-28T06:25:49;14.60;73.00
23591;DHT22;11973;52.098;7.582;2023-05-28T06:28:15;14.70;73.20
23591;DHT22;11973;52.098;7.582;2023-05-28T06:30:43;14.90;73.40
23591;DHT22;11973;52.098;7.582;2023-05-28T06:33:09;15.00;73.40
23591;DHT22;11973;52.098;7.582;2023-05-28T06:35:35;15.10;73.50
23591;DHT22;11973;52.098;7.582;2023-05-28T06:38:02;15.30;73.60
23591;DHT22;11973;52.098;7.582;2023-05-28T06:40:28;15.40;74.30
23591;DHT22;11973;52.098;7.582;2023-05-28T06:42:53;15.50;73.60
23591;DHT22;11973;52.098;7.582;2023-05-28T06:45:39;15.60;74.40
23591;DHT22;11973;52.098;7.582;2023-05-28T06:48:08;15.70;73.60
23591;DHT22;11973;52.098;7.582;2023-05-28T06:50:34;15.80;73.60
23591;DHT22;11973;52.098;7.582;2023-05-28T06:52:59;15.90;73.60
23591;DHT22;11973;52.098;7.582;2023-05-28T06:55:26;16.00;73.60
23591;DHT22;11973;52.098;7.582;2023-05-28T06:58:21;16.10;73.60
23591;DHT22;11973;52.098;7.582;2023-05-28T07:01:07;16.20;73.40
23591;DHT22;11973;52.098;7.582;2023-05-28T07:03:58;16.30;73.50
23591;DHT22;11973;52.098;7.582;2023-05-28T07:06:34;16.40;73.40
23591;DHT22;11973;52.098;7.582;2023-05-28T07:09:00;16.50;73.30
23591;DHT22;11973;52.098;7.582;2023-05-28T07:11:26;16.60;73.30
23591;DHT22;11973;52.098;7.582;2023-05-28T07:13:52;16.60;73.10
23591;DHT22;11973;52.098;7.582;2023-05-28T07:16:22;16.70;73.20
23591;DHT22;11973;52.098;7.582;2023-05-28T07:18:47;16.80;73.10
23591;DHT22;11973;52.098;7.582;2023-05-28T07:21:14;16.90;73.00
23591;DHT22;11973;52.098;7.582;2023-05-28T07:23:44;17.00;72.90
23591;DHT22;11973;52.098;7.582;2023-05-28T07:26:10;17.10;72.80
23591;DHT22;11973;52.098;7.582;2023-05-28T07:28:36;17.30;72.70
23591;DHT22;11973;52.098;7.582;2023-05-28T07:31:02;17.40;72.60
23591;DHT22;11973;52.098;7.582;2023-05-28T07:33:29;17.50;72.40
23591;DHT22;11973;52.098;7.582;2023-05-28T07:35:55;17.70;73.00
23591;DHT22;11973;52.098;7.582;2023-05-28T07:38:21;17.80;72.00
23591;DHT22;11973;52.098;7.582;2023-05-28T07:40:50;17.90;71.80
23591;DHT22;11973;52.098;7.582;2023-05-28T07:43:24;18.10;71.70
23591;DHT22;11973;52.098;7.582;2023-05-28T07:45:53;18.20;71.70
23591;DHT22;11973;52.098;7.582;2023-05-28T07:48:20;18.40;71.70
23591;DHT22;11973;52.098;7.582;2023-05-28T07:50:57;18.50;72.30
23591;DHT22;11973;52.098;7.582;2023-05-28T07:53:44;18.70;71.20
23591;DHT22;11973;52.098;7.582;2023-05-28T07:56:16;18.80;70.90
23591;DHT22;11973;52.098;7.582;2023-05-28T07:58:46;19.00;70.70
23591;DHT22;11973;52.098;7.582;2023-05-28T08:01:14;19.00;70.40
23591;DHT22;11973;52.098;7.582;2023-05-28T08:03:41;19.20;70.20
23591;DHT22;11973;52.098;7.582;2023-05-28T08:06:07;19.30;70.00
23591;DHT22;11973;52.098;7.582;2023-05-28T08:08:35;19.40;69.70
23591;DHT22;11973;52.098;7.582;2023-05-28T08:11:02;19.50;69.50
23591;DHT22;11973;52.098;7.582;2023-05-28T08:13:27;19.60;69.40
23591;DHT22;11973;52.098;7.582;2023-05-28T08:15:54;19.70;69.20
23591;DHT22;11973;52.098;7.582;2023-05-28T08:18:22;19.80;68.90
23591;DHT22;11973;52.098;7.582;2023-05-28T08:20:48;19.90;68.50
23591;DHT22;11973;52.098;7.582;2023-05-28T08:23:21;20.00;68.10
23591;DHT22;11973;52.098;7.582;2023-05-28T08:25:49;20.00;67.80
23591;DHT22;11973;52.098;7.582;2023-05-28T08:28:23;20.10;67.60
23591;DHT22;11973;52.098;7.582;2023-05-28T08:30:49;20.00;67.10
23591;DHT22;11973;52.098;7.582;2023-05-28T08:33:30;20.00;66.90
23591;DHT22;11973;52.098;7.582;2023-05-28T08:35:56;20.00;66.70
23591;DHT22;11973;52.098;7.582;2023-05-28T08:38:23;20.00;66.40
23591;DHT22;11973;52.098;7.582;2023-05-28T08:40:55;20.10;66.40
23591;DHT22;11973;52.098;7.582;2023-05-28T08:43:22;20.10;66.00
23591;DHT22;11973;52.098;7.582;2023-05-28T08:45:51;20.20;66.00
23591;DHT22;11973;52.098;7.582;2023-05-28T08:48:20;20.30;65.80
23591;DHT22;11973;52.098;7.582;2023-05-28T08:50:49;20.40;65.40
23591;DHT22;11973;52.098;7.582;2023-05-28T08:53:23;20.50;65.00
23591;DHT22;11973;52.098;7.582;2023-05-28T08:55:51;20.70;65.10
23591;DHT22;11973;52.098;7.582;2023-05-28T08:58:21;20.80;64.90
23591;DHT22;11973;52.098;7.582;2023-05-28T09:00:49;20.90;64.70
23591;DHT22;11973;52.098;7.582;2023-05-28T09:03:37;21.00;64.20
23591;DHT22;11973;52.098;7.582;2023-05-28T09:06:23;21.20;64.00
23591;DHT22;11973;52.098;7.582;2023-05-28T09:08:53;21.30;63.90
23591;DHT22;11973;52.098;7.582;2023-05-28T09:11:39;21.40;63.50
23591;DHT22;11973;52.098;7.582;2023-05-28T09:14:12;21.50;63.10
23591;DHT22;11973;52.098;7.582;2023-05-28T09:16:42;21.60;62.80
23591;DHT22;11973;52.098;7.582;2023-05-28T09:19:14;21.70;62.50
23591;DHT22;11973;52.098;7.582;2023-05-28T09:21:59;21.80;62.10
23591;DHT22;11973;52.098;7.582;2023-05-28T09:24:37;21.90;61.50
23591;DHT22;11973;52.098;7.582;2023-05-28T09:27:43;22.00;61.40
23591;DHT22;11973;52.098;7.582;2023-05-28T09:30:10;22.10;61.20
23591;DHT22;11973;52.098;7.582;2023-05-28T09:32:37;22.20;61.10
23591;DHT22;11973;52.098;7.582;2023-05-28T09:35:06;22.30;60.90
23591;DHT22;11973;52.098;7.582;2023-05-28T09:37:34;22.40;60.70
23591;DHT22;11973;52.098;7.582;2023-05-28T09:40:02;22.50;60.50
23591;DHT22;11973;52.098;7.582;2023-05-28T09:42:37;22.60;60.10
23591;DHT22;11973;52.098;7.582;2023-05-28T09:45:05;22.70;59.90
23591;DHT22;11973;52.098;7.582;2023-05-28T09:47:31;22.70;59.90
23591;DHT22;11973;52.098;7.582;2023-05-28T09:49:57;22.80;60.50
23591;DHT22;11973;52.098;7.582;2023-05-28T09:52:22;22.90;59.60
23591;DHT22;11973;52.098;7.582;2023-05-28T09:54:52;22.90;59.40
23591;DHT22;11973;52.098;7.582;2023-05-28T09:57:30;22.90;59.60
23591;DHT22;11973;52.098;7.582;2023-05-28T09:59:56;23.00;58.60
23591;DHT22;11973;52.098;7.582;2023-05-28T10:02:32;22.90;58.40
23591;DHT22;11973;52.098;7.582;2023-05-28T10:05:02;22.90;58.40
23591;DHT22;11973;52.098;7.582;2023-05-28T10:07:33;22.90;58.10
23591;DHT22;11973;52.098;7.582;2023-05-28T10:10:01;22.80;57.80
23591;DHT22;11973;52.098;7.582;2023-05-28T10:12:29;22.80;57.70
23591;DHT22;11973;52.098;7.582;2023-05-28T10:14:56;22.70;58.30
23591;DHT22;11973;52.098;7.582;2023-05-28T10:17:22;22.70;57.50
23591;DHT22;11973;52.098;7.582;2023-05-28T10:19:48;22.70;57.40
23591;DHT22;11973;52.098;7.582;2023-05-28T10:22:15;22.70;57.40
23591;DHT22;11973;52.098;7.582;2023-05-28T10:24:42;22.60;57.20
23591;DHT22;11973;52.098;7.582;2023-05-28T10:27:13;22.60;57.00
23591;DHT22;11973;52.098;7.582;2023-05-28T10:29:41;22.60;57.50
23591;DHT22;11973;52.098;7.582;2023-05-28T10:32:07;22.60;56.70
23591;DHT22;11973;52.098;7.582;2023-05-28T10:34:35;22.50;56.50
23591;DHT22;11973;52.098;7.582;2023-05-28T10:37:08;22.50;57.10
23591;DHT22;11973;52.098;7.582;2023-05-28T10:39:44;22.50;56.30
23591;DHT22;11973;52.098;7.582;2023-05-28T10:42:17;22.50;56.30
23591;DHT22;11973;52.098;7.582;2023-05-28T10:44:51;22.50;56.30
23591;DHT22;11973;52.098;7.582;2023-05-28T10:47:18;22.50;56.00
23591;DHT22;11973;52.098;7.582;2023-05-28T10:52:35;22.40;55.90
23591;DHT22;11973;52.098;7.582;2023-05-28T10:55:08;22.40;56.00
23591;DHT22;11973;52.098;7.582;2023-05-28T10:57:45;22.30;55.90
23591;DHT22;11973;52.098;7.582;2023-05-28T11:00:12;22.40;55.60
23591;DHT22;11973;52.098;7.582;2023-05-28T11:02:43;22.40;55.60
23591;DHT22;11973;52.098;7.582;2023-05-28T11:05:10;22.40;55.40
23591;DHT22;11973;52.098;7.582;2023-05-28T11:07:40;22.40;55.50
23591;DHT22;11973;52.098;7.582;2023-05-28T11:10:10;22.50;55.50
23591;DHT22;11973;52.098;7.582;2023-05-28T11:12:39;22.50;55.50
23591;DHT22;11973;52.098;7.582;2023-05-28T11:15:11;22.50;55.40
23591;DHT22;11973;52.098;7.582;2023-05-28T11:17:42;22.60;55.60
23591;DHT22;11973;52.098;7.582;2023-05-28T11:20:37;22.60;55.50
23591;DHT22;11973;52.098;7.582;2023-05-28T11:23:14;22.70;55.50
23591;DHT22;11973;52.098;7.582;2023-05-28T11:25:44;22.70;55.40
23591;DHT22;11973;52.098;7.582;2023-05-28T11:28:11;22.80;55.50
23591;DHT22;11973;52.098;7.582;2023-05-28T11:30:37;22.80;55.30
23591;DHT22;11973;52.098;7.582;2023-05-28T11:33:02;22.80;55.30
23591;DHT22;11973;52.098;7.582;2023-05-28T11:35:28;22.90;55.20
23591;DHT22;11973;52.098;7.582;2023-05-28T11:37:58;23.00;55.20
23591;DHT22;11973;52.098;7.582;2023-05-28T11:40:33;23.00;55.00
23591;DHT22;11973;52.098;7.582;2023-05-28T11:42:59;23.00;54.80
23591;DHT22;11973;52.098;7.582;2023-05-28T11:45:26;23.10;54.80
23591;DHT22;11973;52.098;7.582;2023-05-28T11:47:52;23.10;54.80
23591;DHT22;11973;52.098;7.582;2023-05-28T11:50:19;23.20;54.70
23591;DHT22;11973;52.098;7.582;2023-05-28T11:52:46;23.20;54.60
23591;DHT22;11973;52.098;7.582;2023-05-28T11:55:12;23.20;54.80
23591;DHT22;11973;52.098;7.582;2023-05-28T11:57:53;23.20;54.30
23591;DHT22;11973;52.098;7.582;2023-05-28T12:00:20;23.30;54.30
23591;DHT22;11973;52.098;7.582;2023-05-28T12:02:54;23.30;54.30
23591;DHT22;11973;52.098;7.582;2023-05-28T12:05:20;23.40;54.50
23591;DHT22;11973;52.098;7.582;2023-05-28T12:07:51;23.50;54.50
23591;DHT22;11973;52.098;7.582;2023-05-28T12:10:19;23.60;54.60
23591;DHT22;11973;52.098;7.582;2023-05-28T12:12:52;23.70;54.50
23591;DHT22;11973;52.098;7.582;2023-05-28T12:15:22;23.90;54.30
23591;DHT22;11973;52.098;7.582;2023-05-28T12:17:52;24.00;54.20
23591;DHT22;11973;52.098;7.582;2023-05-28T12:22:45;24.10;54.10
23591;DHT22;11973;52.098;7.582;2023-05-28T12:25:11;24.20;54.10
23591;DHT22;11973;52.098;7.582;2023-05-28T12:27:37;24.30;54.10
23591;DHT22;11973;52.098;7.582;2023-05-28T12:30:04;24.40;54.00
23591;DHT22;11973;52.098;7.582;2023-05-28T12:32:30;24.50;54.10
23591;DHT22;11973;52.098;7.582;2023-05-28T12:34:56;24.60;54.10
23591;DHT22;11973;52.098;7.582;2023-05-28T12:37:24;24.70;54.20
23591;DHT22;11973;52.098;7.582;2023-05-28T12:39:51;24.90;54.20
23591;DHT22;11973;52.098;7.582;2023-05-28T12:42:18;25.00;53.90
23591;DHT22;11973;52.098;7.582;2023-05-28T12:44:44;25.10;53.60
23591;DHT22;11973;52.098;7.582;2023-05-28T12:47:10;25.20;53.50
23591;DHT22;11973;52.098;7.582;2023-05-28T12:49:36;25.30;53.20
23591;DHT22;11973;52.098;7.582;2023-05-28T12:52:02;25.40;53.00
23591;DHT22;11973;52.098;7.582;2023-05-28T12:54:27;25.40;52.90
23591;DHT22;11973;52.098;7.582;2023-05-28T12:56:53;25.50;53.00
23591;DHT22;11973;52.098;7.582;2023-05-28T12:59:26;25.60;53.00
23591;DHT22;11973;52.098;7.582;2023-05-28T13:01:52;25.70;52.90
23591;DHT22;11973;52.098;7.582;2023-05-28T13:04:20;25.90;52.90
23591;DHT22;11973;52.098;7.582;2023-05-28T13:06:46;25.90;52.40
23591;DHT22;11973;52.098;7.582;2023-05-28T13:09:13;26.00;52.30
23591;DHT22;11973;52.098;7.582;2023-05-28T13:11:40;26.00;52.30
23591;DHT22;11973;52.098;7.582;2023-05-28T13:14:06;26.10;52.40
23591;DHT22;11973;52.098;7.582;2023-05-28T13:16:32;26.20;52.00
23591;DHT22;11973;52.098;7.582;2023-05-28T13:18:58;26.20;51.50
23591;DHT22;11973;52.098;7.582;2023-05-28T13:21:24;26.20;51.30
23591;DHT22;11973;52.098;7.582;2023-05-28T13:23:49;26.30;51.00
23591;DHT22;11973;52.098;7.582;2023-05-28T13:26:15;26.30;50.70
23591;DHT22;11973;52.098;7.582;2023-05-28T13:28:41;26.30;50.30
23591;DHT22;11973;52.098;7.582;2023-05-28T13:31:07;26.30;50.20
23591;DHT22;11973;52.098;7.582;2023-05-28T13:33:33;26.30;50.20
23591;DHT22;11973;52.098;7.582;2023-05-28T13:35:58;26.40;50.20
23591;DHT22;11973;52.098;7.582;2023-05-28T13:38:24;26.50;50.20
23591;DHT22;11973;52.098;7.582;2023-05-28T13:40:50;26.60;50.00
23591;DHT22;11973;52.098;7.582;2023-05-28T13:43:18;26.70;49.50
23591;DHT22;11973;52.098;7.582;2023-05-28T13:45:44;26.80;49.40
23591;DHT22;11973;52.098;7.582;2023-05-28T13:48:09;26.90;49.10
23591;DHT22;11973;52.098;7.582;2023-05-28T13:50:36;27.00;48.90
23591;DHT22;11973;52.098;7.582;2023-05-28T13:53:02;27.10;49.00
23591;DHT22;11973;52.098;7.582;2023-05-28T13:55:27;27.20;48.90
23591;DHT22;11973;52.098;7.582;2023-05-28T13:57:53;27.50;48.80
23591;DHT22;11973;52.098;7.582;2023-05-28T14:00:19;27.90;49.10
23591;DHT22;11973;52.098;7.582;2023-05-28T14:02:47;28.30;49.30
23591;DHT22;11973;52.098;7.582;2023-05-28T14:05:14;28.80;49.00
23591;DHT22;11973;52.098;7.582;2023-05-28T14:07:40;29.30;48.80
23591;DHT22;11973;52.098;7.582;2023-05-28T14:10:06;29.90;48.60
23591;DHT22;11973;52.098;7.582;2023-05-28T14:12:32;30.40;48.30
23591;DHT22;11973;52.098;7.582;2023-05-28T14:14:58;31.00;48.10
23591;DHT22;11973;52.098;7.582;2023-05-28T14:17:23;31.50;47.60
23591;DHT22;11973;52.098;7.582;2023-05-28T14:19:49;32.10;47.00
23591;DHT22;11973;52.098;7.582;2023-05-28T14:22:15;32.50;46.20
23591;DHT22;11973;52.098;7.582;2023-05-28T14:24:40;32.80;45.20
23591;DHT22;11973;52.098;7.582;2023-05-28T14:27:06;33.10;44.90
23591;DHT22;11973;52.098;7.582;2023-05-28T14:29:32;33.30;43.80
23591;DHT22;11973;52.098;7.582;2023-05-28T14:31:58;33.50;43.10
23591;DHT22;11973;52.098;7.582;2023-05-28T14:34:23;33.60;42.30
23591;DHT22;11973;52.098;7.582;2023-05-28T14:36:49;33.80;41.80
23591;DHT22;11973;52.098;7.582;2023-05-28T14:39:15;33.90;41.30
23591;DHT22;11973;52.098;7.582;2023-05-28T14:41:40;34.00;41.50
23591;DHT22;11973;52.098;7.582;2023-05-28T14:44:06;34.20;40.40
23591;DHT22;11973;52.098;7.582;2023-05-28T14:46:32;34.20;39.70
23591;DHT22;11973;52.098;7.582;2023-05-28T14:48:57;34.30;39.30
23591;DHT22;11973;52.098;7.582;2023-05-28T14:51:23;34.40;39.00
23591;DHT22;11973;52.098;7.582;2023-05-28T14:53:49;34.60;38.60
23591;DHT22;11973;52.098;7.582;2023-05-28T14:56:15;34.80;38.20
23591;DHT22;11973;52.098;7.582;2023-05-28T14:58:40;35.00;38.30
23591;DHT22;11973;52.098;7.582;2023-05-28T15:01:06;35.30;38.00
23591;DHT22;11973;52.098;7.582;2023-05-28T15:03:32;35.50;37.70
23591;DHT22;11973;52.098;7.582;2023-05-28T15:05:58;35.80;37.30
23591;DHT22;11973;52.098;7.582;2023-05-28T15:08:27;36.10;36.90
23591;DHT22;11973;52.098;7.582;2023-05-28T15:10:53;36.40;36.40
23591;DHT22;11973;52.098;7.582;2023-05-28T15:13:19;36.60;36.00
23591;DHT22;11973;52.098;7.582;2023-05-28T15:15:44;36.80;35.60
23591;DHT22;11973;52.098;7.582;2023-05-28T15:18:10;37.00;35.10
23591;DHT22;11973;52.098;7.582;2023-05-28T15:20:36;37.20;34.90
23591;DHT22;11973;52.098;7.582;2023-05-28T15:23:02;37.40;34.50
23591;DHT22;11973;52.098;7.582;2023-05-28T15:25:28;37.50;33.90
23591;DHT22;11973;52.098;7.582;2023-05-28T15:27:53;37.30;33.30
23591;DHT22;11973;52.098;7.582;2023-05-28T15:30:20;37.20;33.30
23591;DHT22;11973;52.098;7.582;2023-05-28T15:32:47;37.20;33.00
23591;DHT22;11973;52.098;7.582;2023-05-28T15:35:13;37.30;32.90
23591;DHT22;11973;52.098;7.582;2023-05-28T15:37:40;37.40;32.80
23591;DHT22;11973;52.098;7.582;2023-05-28T15:40:06;37.70;32.60
23591;DHT22;11973;52.098;7.582;2023-05-28T15:42:34;38.10;32.20
23591;DHT22;11973;52.098;7.582;2023-05-28T15:45:01;38.30;31.50
23591;DHT22;11973;52.098;7.582;2023-05-28T15:47:27;38.40;31.10
23591;DHT22;11973;52.098;7.582;2023-05-28T15:49:53;38.50;30.60
23591;DHT22;11973;52.098;7.582;2023-05-28T15:52:18;38.60;30.30
23591;DHT22;11973;52.098;7.582;2023-05-28T15:54:44;38.80;30.50
23591;DHT22;11973;52.098;7.582;2023-05-28T15:57:10;39.00;30.20
23591;DHT22;11973;52.098;7.582;2023-05-28T15:59:36;39.20;30.00
23591;DHT22;11973;52.098;7.582;2023-05-28T16:02:07;39.30;29.70
23591;DHT22;11973;52.098;7.582;2023-05-28T16:04:37;39.60;29.60
23591;DHT22;11973;52.098;7.582;2023-05-28T16:07:03;39.60;29.30
23591;DHT22;11973;52.098;7.582;2023-05-28T16:09:29;39.70;29.20
23591;DHT22;11973;52.098;7.582;2023-05-28T16:11:56;39.80;28.90
23591;DHT22;11973;52.098;7.582;2023-05-28T16:14:23;40.00;28.80
23591;DHT22;11973;52.098;7.582;2023-05-28T16:16:53;40.10;28.70
23591;DHT22;11973;52.098;7.582;2023-05-28T16:19:21;40.30;28.40
23591;DHT22;11973;52.098;7.582;2023-05-28T16:21:47;40.40;28.20
23591;DHT22;11973;52.098;7.582;2023-05-28T16:24:13;40.40;27.90
23591;DHT22;11973;52.098;7.582;2023-05-28T16:26:40;40.40;27.80
23591;DHT22;11973;52.098;7.582;2023-05-28T16:29:06;40.40;27.60
23591;DHT22;11973;52.098;7.582;2023-05-28T16:31:32;40.20;27.20
23591;DHT22;11973;52.098;7.582;2023-05-28T16:33:58;39.50;27.10
23591;DHT22;11973;52.098;7.582;2023-05-28T16:36:24;38.50;27.10
23591;DHT22;11973;52.098;7.582;2023-05-28T16:38:52;37.70;27.20
23591;DHT22;11973;52.098;7.582;2023-05-28T16:41:19;37.10;27.60
23591;DHT22;11973;52.098;7.582;2023-05-28T16:43:46;36.40;27.60
23591;DHT22;11973;52.098;7.582;2023-05-28T16:46:14;35.70;27.80
23591;DHT22;11973;52.098;7.582;2023-05-28T16:48:41;35.00;28.00
23591;DHT22;11973;52.098;7.582;2023-05-28T16:51:07;34.30;28.20
23591;DHT22;11973;52.098;7.582;2023-05-28T16:53:35;33.80;28.50
23591;DHT22;11973;52.098;7.582;2023-05-28T16:56:02;33.60;28.70
23591;DHT22;11973;52.098;7.582;2023-05-28T16:58:28;33.30;28.90
23591;DHT22;11973;52.098;7.582;2023-05-28T17:00:54;32.80;29.10
23591;DHT22;11973;52.098;7.582;2023-05-28T17:03:21;32.50;29.30
23591;DHT22;11973;52.098;7.582;2023-05-28T17:05:48;32.10;29.50
23591;DHT22;11973;52.098;7.582;2023-05-28T17:08:14;31.80;30.10
23591;DHT22;11973;52.098;7.582;2023-05-28T17:10:40;31.50;29.90
23591;DHT22;11973;52.098;7.582;2023-05-28T17:13:05;31.10;30.00
23591;DHT22;11973;52.098;7.582;2023-05-28T17:15:31;30.70;30.00
23591;DHT22;11973;52.098;7.582;2023-05-28T17:17:57;30.30;30.30
23591;DHT22;11973;52.098;7.582;2023-05-28T17:20:23;29.90;31.30
23591;DHT22;11973;52.098;7.582;2023-05-28T17:22:49;29.50;30.90
23591;DHT22;11973;52.098;7.582;2023-05-28T17:25:15;29.20;31.30
23591;DHT22;11973;52.098;7.582;2023-05-28T17:27:41;28.80;31.30
23591;DHT22;11973;52.098;7.582;2023-05-28T17:30:07;28.50;31.60
23591;DHT22;11973;52.098;7.582;2023-05-28T17:32:33;28.30;31.80
23591;DHT22;11973;52.098;7.582;2023-05-28T17:34:58;28.10;32.10
23591;DHT22;11973;52.098;7.582;2023-05-28T17:37:24;28.00;32.30
23591;DHT22;11973;52.098;7.582;2023-05-28T17:39:51;27.90;32.50
23591;DHT22;11973;52.098;7.582;2023-05-28T17:42:17;28.00;32.60
23591;DHT22;11973;52.098;7.582;2023-05-28T17:44:43;28.10;32.60
23591;DHT22;11973;52.098;7.582;2023-05-28T17:47:09;28.30;32.60
23591;DHT22;11973;52.098;7.582;2023-05-28T17:49:34;28.40;32.60
23591;DHT22;11973;52.098;7.582;2023-05-28T17:52:01;28.20;32.50
23591;DHT22;11973;52.098;7.582;2023-05-28T17:54:27;28.10;32.70
23591;DHT22;11973;52.098;7.582;2023-05-28T17:56:53;27.90;32.80
23591;DHT22;11973;52.098;7.582;2023-05-28T17:59:19;27.60;32.70
23591;DHT22;11973;52.098;7.582;2023-05-28T18:01:45;27.30;32.80
23591;DHT22;11973;52.098;7.582;2023-05-28T18:04:11;27.10;33.10
23591;DHT22;11973;52.098;7.582;2023-05-28T18:06:37;26.90;33.10
23591;DHT22;11973;52.098;7.582;2023-05-28T18:09:03;26.60;33.20
23591;DHT22;11973;52.098;7.582;2023-05-28T18:11:32;26.40;33.30
23591;DHT22;11973;52.098;7.582;2023-05-28T18:13:58;26.20;33.60
23591;DHT22;11973;52.098;7.582;2023-05-28T18:16:23;26.00;33.60
23591;DHT22;11973;52.098;7.582;2023-05-28T18:18:49;25.80;33.70
23591;DHT22;11973;52.098;7.582;2023-05-28T18:21:15;25.60;33.80
23591;DHT22;11973;52.098;7.582;2023-05-28T18:23:43;25.50;33.90
23591;DHT22;11973;52.098;7.582;2023-05-28T18:26:09;25.30;34.10
23591;DHT22;11973;52.098;7.582;2023-05-28T18:28:35;25.10;34.30
23591;DHT22;11973;52.098;7.582;2023-05-28T18:31:02;24.90;34.50
23591;DHT22;11973;52.098;7.582;2023-05-28T18:33:27;24.80;34.90
23591;DHT22;11973;52.098;7.582;2023-05-28T18:35:55;24.60;35.10
23591;DHT22;11973;52.098;7.582;2023-05-28T18:38:21;24.50;35.40
23591;DHT22;11973;52.098;7.582;2023-05-28T18:40:46;24.40;35.80
23591;DHT22;11973;52.098;7.582;2023-05-28T18:43:12;24.20;36.00
23591;DHT22;11973;52.098;7.582;2023-05-28T18:45:38;24.10;36.30
23591;DHT22;11973;52.098;7.582;2023-05-28T18:48:04;24.00;36.50
23591;DHT22;11973;52.098;7.582;2023-05-28T18:50:30;23.80;36.80
23591;DHT22;11973;52.098;7.582;2023-05-28T18:52:55;23.70;37.00
23591;DHT22;11973;52.098;7.582;2023-05-28T18:55:21;23.50;37.20
23591;DHT22;11973;52.098;7.582;2023-05-28T18:57:47;23.40;37.40
23591;DHT22;11973;52.098;7.582;2023-05-28T19:00:13;23.30;37.60
23591;DHT22;11973;52.098;7.582;2023-05-28T19:02:39;23.10;37.70
23591;DHT22;11973;52.098;7.582;2023-05-28T19:05:05;23.00;38.00
23591;DHT22;11973;52.098;7.582;2023-05-28T19:07:31;22.90;38.20
23591;DHT22;11973;52.098;7.582;2023-05-28T19:09:58;22.80;39.40
23591;DHT22;11973;52.098;7.582;2023-05-28T19:12:29;22.60;39.30
23591;DHT22;11973;52.098;7.582;2023-05-28T19:14:56;22.50;39.30
23591;DHT22;11973;52.098;7.582;2023-05-28T19:17:24;22.40;39.50
23591;DHT22;11973;52.098;7.582;2023-05-28T19:19:49;22.30;39.80
23591;DHT22;11973;52.098;7.582;2023-05-28T19:22:15;22.20;40.00
23591;DHT22;11973;52.098;7.582;2023-05-28T19:24:41;22.00;40.30
23591;DHT22;11973;52.098;7.582;2023-05-28T19:27:06;21.90;40.50
23591;DHT22;11973;52.098;7.582;2023-05-28T19:29:32;21.80;41.30
23591;DHT22;11973;52.098;7.582;2023-05-28T19:31:58;21.70;41.50
23591;DHT22;11973;52.098;7.582;2023-05-28T19:34:24;21.50;41.60
23591;DHT22;11973;52.098;7.582;2023-05-28T19:36:49;21.40;41.90
23591;DHT22;11973;52.098;7.582;2023-05-28T19:39:15;21.20;42.10
23591;DHT22;11973;52.098;7.582;2023-05-28T19:41:41;21.10;42.30
23591;DHT22;11973;52.098;7.582;2023-05-28T19:44:08;21.00;42.60
23591;DHT22;11973;52.098;7.582;2023-05-28T19:46:34;20.90;42.70
23591;DHT22;11973;52.098;7.582;2023-05-28T19:49:00;20.80;43.00
23591;DHT22;11973;52.098;7.582;2023-05-28T19:51:26;20.70;43.10
23591;DHT22;11973;52.098;7.582;2023-05-28T19:53:52;20.60;43.50
23591;DHT22;11973;52.098;7.582;2023-05-28T19:56:19;20.50;43.70
23591;DHT22;11973;52.098;7.582;2023-05-28T19:58:46;20.30;43.80
23591;DHT22;11973;52.098;7.582;2023-05-28T20:01:12;20.30;44.00
23591;DHT22;11973;52.098;7.582;2023-05-28T20:03:39;20.20;44.30
23591;DHT22;11973;52.098;7.582;2023-05-28T20:06:05;20.10;44.40
23591;DHT22;11973;52.098;7.582;2023-05-28T20:08:32;20.00;44.60
23591;DHT22;11973;52.098;7.582;2023-05-28T20:10:58;19.90;44.70
23591;DHT22;11973;52.098;7.582;2023-05-28T20:13:24;19.80;45.00
23591;DHT22;11973;52.098;7.582;2023-05-28T20:15:51;19.70;45.10
23591;DHT22;11973;52.098;7.582;2023-05-28T20:18:18;19.70;45.30
23591;DHT22;11973;52.098;7.582;2023-05-28T20:20:45;19.60;45.50
23591;DHT22;11973;52.098;7.582;2023-05-28T20:23:11;19.50;45.60
23591;DHT22;11973;52.098;7.582;2023-05-28T20:25:37;19.50;46.10
23591;DHT22;11973;52.098;7.582;2023-05-28T20:28:03;19.40;46.00
23591;DHT22;11973;52.098;7.582;2023-05-28T20:30:30;19.30;46.20
23591;DHT22;11973;52.098;7.582;2023-05-28T20:32:56;19.20;46.30
23591;DHT22;11973;52.098;7.582;2023-05-28T20:35:25;19.10;46.50
23591;DHT22;11973;52.098;7.582;2023-05-28T20:37:55;19.10;46.80
23591;DHT22;11973;52.098;7.582;2023-05-28T20:40:28;19.00;46.80
23591;DHT22;11973;52.098;7.582;2023-05-28T20:42:54;18.90;46.90
23591;DHT22;11973;52.098;7.582;2023-05-28T20:45:20;18.90;47.00
23591;DHT22;11973;52.098;7.582;2023-05-28T20:47:46;18.80;47.10
23591;DHT22;11973;52.098;7.582;2023-05-28T20:50:12;18.70;47.20
23591;DHT22;11973;52.098;7.582;2023-05-28T20:52:38;18.70;47.50
23591;DHT22;11973;52.098;7.582;2023-05-28T20:55:05;18.60;47.50